createdAt,value
2023-04-21T00:00:16.743Z,92.44
2023-04-21T00:02:46.549Z,91.91
2023-04-21T00:05:14.241Z,92.74
2023-04-21T00:07:42.427Z,92.44
2023-04-21T00:10:10.555Z,92.88
2023-04-21T00:12:38.268Z,92.78
2023-04-21T00:15:06.911Z,93.06
2023-04-21T00:17:35.929Z,92.99
2023-04-21T00:20:04.550Z,92.92
2023-04-21T00:22:32.021Z,93.12
2023-04-21T00:24:59.459Z,92.58
2023-04-21T00:27:26.921Z,93.14
2023-04-21T00:29:54.347Z,93.63
2023-04-21T00:32:21.811Z,93.06
2023-04-21T00:34:50.649Z,93.26
2023-04-21T00:37:18.108Z,92.90
2023-04-21T00:39:45.593Z,92.79
2023-04-21T00:42:16.336Z,92.71
2023-04-21T00:44:43.782Z,93.24
2023-04-21T00:47:11.569Z,93.35
2023-04-21T00:49:39.120Z,93.40
2023-04-21T00:52:08.038Z,93.66
2023-04-21T00:54:36.548Z,93.73
2023-04-21T00:57:04.640Z,94.36
2023-04-21T00:59:32.138Z,93.58
2023-04-21T01:01:59.735Z,93.45
2023-04-21T01:04:27.251Z,93.89
2023-04-21T01:06:54.791Z,93.89
2023-04-21T01:09:23.678Z,94.03
2023-04-21T01:12:03.482Z,94.08
2023-04-21T01:14:31.021Z,94.57
2023-04-21T01:16:59.157Z,94.79
2023-04-21T01:19:27.897Z,94.72
2023-04-21T01:21:57.544Z,95.19
2023-04-21T01:24:25.503Z,95.29
2023-04-21T01:26:52.947Z,94.81
2023-04-21T01:29:20.616Z,94.92
2023-04-21T01:31:48.280Z,94.76
2023-04-21T01:34:16.116Z,94.91
2023-04-21T01:36:43.569Z,95.17
2023-04-21T01:39:12.390Z,95.15
2023-04-21T01:41:39.828Z,94.89
2023-04-21T01:44:07.273Z,95.36
2023-04-21T01:46:34.797Z,95.38
2023-04-21T01:49:02.272Z,96.15
2023-04-21T01:51:29.781Z,96.01
2023-04-21T01:53:57.213Z,95.68
2023-04-21T01:56:25.998Z,95.55
2023-04-21T01:58:53.548Z,95.20
2023-04-21T02:01:21.073Z,95.16
2023-04-21T02:03:48.831Z,95.27
2023-04-21T02:06:17.756Z,95.15
2023-04-21T02:08:45.238Z,95.29
2023-04-21T02:11:12.722Z,95.13
2023-04-21T02:13:41.824Z,95.10
2023-04-21T02:16:13.957Z,94.25
2023-04-21T02:18:41.750Z,93.58
2023-04-21T02:21:09.182Z,93.91
2023-04-21T02:23:36.682Z,94.56
2023-04-21T02:26:04.137Z,95.05
2023-04-21T02:28:31.613Z,95.55
2023-04-21T02:31:00.463Z,95.49
2023-04-21T02:33:28.001Z,95.47
2023-04-21T02:35:55.627Z,95.29
2023-04-21T02:38:23.066Z,94.99
2023-04-21T02:40:50.544Z,95.29
2023-04-21T02:43:18.120Z,95.76
2023-04-21T02:45:45.944Z,95.62
2023-04-21T02:48:14.788Z,96.15
2023-04-21T02:50:43.734Z,96.14
2023-04-21T02:53:11.165Z,96.09
2023-04-21T02:55:38.613Z,95.52
2023-04-21T02:58:06.087Z,96.06
2023-04-21T03:00:33.581Z,96.09
2023-04-21T03:03:01.698Z,96.45
2023-04-21T03:05:30.598Z,96.58
2023-04-21T03:07:58.035Z,96.51
2023-04-21T03:10:25.664Z,96.28
2023-04-21T03:12:53.507Z,96.23
2023-04-21T03:15:22.563Z,96.55
2023-04-21T03:17:50.088Z,96.25
2023-04-21T03:20:17.813Z,96.12
2023-04-21T03:22:46.610Z,95.82
2023-04-21T03:25:14.273Z,96.45
2023-04-21T03:27:41.732Z,96.21
2023-04-21T03:30:10.324Z,96.45
2023-04-21T03:32:37.787Z,96.67
2023-04-21T03:35:05.791Z,96.68
2023-04-21T03:37:33.235Z,96.43
2023-04-21T03:40:02.080Z,96.22
2023-04-21T03:42:30.104Z,96.50
2023-04-21T03:44:57.606Z,96.61
2023-04-21T03:47:25.363Z,96.67
2023-04-21T03:49:52.868Z,96.74
2023-04-21T03:52:20.329Z,97.20
2023-04-21T03:54:48.016Z,97.47
2023-04-21T03:57:17.116Z,97.86
2023-04-21T03:59:45.029Z,97.29
2023-04-21T04:02:12.607Z,97.92
2023-04-21T04:04:40.329Z,97.67
2023-04-21T04:07:09.966Z,98.00
2023-04-21T04:09:37.475Z,97.25
2023-04-21T04:12:05.432Z,97.55
2023-04-21T04:14:34.270Z,98.36
2023-04-21T04:17:01.718Z,98.03
2023-04-21T04:19:32.146Z,98.07
2023-04-21T04:22:00.584Z,97.20
2023-04-21T04:24:28.378Z,96.57
2023-04-21T04:26:57.804Z,96.00
2023-04-21T04:29:25.571Z,96.20
2023-04-21T04:31:54.392Z,96.54
2023-04-21T04:34:23.119Z,96.53
2023-04-21T04:36:53.741Z,96.74
2023-04-21T04:39:22.150Z,96.72
2023-04-21T04:41:49.614Z,96.95
2023-04-21T04:44:17.966Z,97.26
2023-04-21T04:46:46.412Z,96.93
2023-04-21T04:49:15.391Z,96.78
2023-04-21T04:51:42.827Z,96.95
2023-04-21T04:54:10.303Z,96.75
2023-04-21T04:56:37.812Z,96.28
2023-04-21T04:59:05.292Z,96.60
2023-04-21T05:01:32.794Z,96.87
2023-04-21T05:04:00.412Z,96.41
2023-04-21T05:06:29.395Z,96.59
2023-04-21T05:08:57.058Z,96.42
2023-04-21T05:11:24.603Z,96.15
2023-04-21T05:13:52.089Z,95.66
2023-04-21T05:16:19.594Z,96.32
2023-04-21T05:18:47.038Z,96.48
2023-04-21T05:21:14.488Z,96.55
2023-04-21T05:23:43.240Z,96.55
2023-04-21T05:26:10.695Z,96.28
2023-04-21T05:28:38.161Z,96.52
2023-04-21T05:31:06.862Z,96.40
2023-04-21T05:33:34.293Z,97.39
2023-04-21T05:36:01.730Z,97.10
2023-04-21T05:38:29.191Z,97.33
2023-04-21T05:41:06.827Z,96.58
2023-04-21T05:43:34.411Z,95.86
2023-04-21T05:46:01.937Z,95.89
2023-04-21T05:48:29.559Z,95.64
2023-04-21T05:50:57.297Z,95.78
2023-04-21T05:53:24.771Z,96.17
2023-04-21T05:55:52.252Z,97.37
2023-04-21T05:58:21.072Z,97.68
2023-04-21T06:00:49.246Z,98.01
2023-04-21T06:03:16.904Z,98.11
2023-04-21T06:05:46.971Z,97.82
2023-04-21T06:08:14.688Z,97.15
2023-04-21T06:10:42.547Z,95.81
2023-04-21T06:13:09.985Z,95.59
2023-04-21T06:15:38.781Z,95.78
2023-04-21T06:18:06.592Z,95.60
2023-04-21T06:20:34.095Z,95.99
2023-04-21T06:23:01.552Z,95.49
2023-04-21T06:25:30.091Z,95.94
2023-04-21T06:27:57.542Z,96.16
2023-04-21T06:30:25.053Z,96.47
2023-04-21T06:32:53.848Z,96.25
2023-04-21T06:35:21.850Z,96.20
2023-04-21T06:37:49.304Z,96.56
2023-04-21T06:40:16.812Z,96.08
2023-04-21T06:42:44.316Z,96.87
2023-04-21T06:45:12.374Z,96.31
2023-04-21T06:47:39.866Z,95.94
2023-04-21T06:50:09.933Z,96.26
2023-04-21T06:52:37.372Z,96.09
2023-04-21T06:55:05.617Z,95.20
2023-04-21T06:57:33.113Z,95.42
2023-04-21T07:00:00.601Z,95.20
2023-04-21T07:02:28.183Z,94.67
2023-04-21T07:04:55.755Z,94.97
2023-04-21T07:07:24.587Z,94.70
2023-04-21T07:09:52.033Z,95.49
2023-04-21T07:12:19.562Z,94.00
2023-04-21T07:14:47.004Z,94.34
2023-04-21T07:17:14.449Z,95.34
2023-04-21T07:19:41.916Z,93.05
2023-04-21T07:22:09.447Z,92.79
2023-04-21T07:24:39.261Z,91.99
2023-04-21T07:27:06.712Z,92.13
2023-04-21T07:29:34.265Z,92.01
2023-04-21T07:32:01.868Z,91.69
2023-04-21T07:34:29.358Z,90.82
2023-04-21T07:36:57.321Z,90.51
2023-04-21T07:39:24.826Z,91.17
2023-04-21T07:41:53.891Z,91.13
2023-04-21T07:44:21.337Z,91.36
2023-04-21T07:46:48.848Z,90.93
2023-04-21T07:49:16.657Z,90.46
2023-04-21T07:51:44.081Z,91.38
2023-04-21T07:54:11.588Z,91.48
2023-04-21T07:56:40.065Z,91.63
2023-04-21T07:59:08.848Z,91.73
2023-04-21T08:01:36.309Z,92.23
2023-04-21T08:04:03.950Z,92.61
2023-04-21T08:06:33.511Z,90.05
2023-04-21T08:09:01.153Z,88.92
2023-04-21T08:11:29.069Z,88.71
2023-04-21T08:13:57.548Z,89.18
2023-04-21T08:16:26.457Z,89.60
2023-04-21T08:18:54.029Z,89.00
2023-04-21T08:21:21.704Z,87.39
2023-04-21T08:23:49.269Z,87.83
2023-04-21T08:26:16.761Z,89.29
2023-04-21T08:28:44.227Z,87.27
2023-04-21T08:31:11.701Z,87.85
2023-04-21T08:33:49.812Z,86.68
2023-04-21T08:36:29.002Z,87.33
2023-04-21T08:39:00.465Z,86.70
2023-04-21T08:41:28.127Z,87.32
2023-04-21T08:43:55.587Z,86.52
2023-04-21T08:46:24.170Z,85.70
2023-04-21T08:48:55.055Z,88.22
2023-04-21T08:51:24.778Z,84.92
2023-04-21T08:53:52.741Z,85.56
2023-04-21T08:56:20.267Z,83.48
2023-04-21T08:58:47.744Z,82.71
2023-04-21T09:01:15.251Z,82.82
2023-04-21T09:03:43.015Z,82.65
2023-04-21T09:06:12.755Z,82.54
2023-04-21T09:08:43.312Z,82.26
2023-04-21T09:11:14.742Z,82.57
2023-04-21T09:13:43.568Z,82.50
2023-04-21T09:16:17.223Z,81.50
2023-04-21T09:18:45.144Z,81.28
2023-04-21T09:21:15.700Z,81.62
2023-04-21T09:23:44.173Z,81.19
2023-04-21T09:26:12.384Z,81.04
2023-04-21T09:28:42.258Z,81.45
2023-04-21T09:31:15.355Z,79.85
2023-04-21T09:33:57.954Z,80.57
2023-04-21T09:36:30.374Z,81.28
2023-04-21T09:41:29.328Z,80.03
2023-04-21T09:44:01.200Z,79.37
2023-04-21T09:46:30.587Z,79.35
2023-04-21T09:49:00.396Z,78.77
2023-04-21T09:51:49.112Z,77.71
2023-04-21T09:56:51.104Z,76.90
2023-04-21T09:59:23.431Z,77.14
2023-04-21T10:01:52.425Z,77.64
2023-04-21T10:04:21.416Z,76.52
2023-04-21T10:06:50.712Z,75.28
2023-04-21T10:09:19.461Z,75.93
2023-04-21T10:11:46.987Z,75.57
2023-04-21T10:14:14.811Z,74.81
2023-04-21T10:16:43.479Z,75.01
2023-04-21T10:19:27.747Z,73.93
2023-04-21T10:21:58.023Z,73.41
2023-04-21T10:24:25.706Z,72.50
2023-04-21T10:26:55.023Z,73.90
2023-04-21T10:29:40.045Z,72.75
2023-04-21T10:32:11.739Z,72.95
2023-04-21T10:34:39.914Z,74.50
2023-04-21T10:37:19.482Z,74.88
2023-04-21T10:39:54.571Z,72.02
2023-04-21T10:42:31.189Z,71.81
2023-04-21T10:45:04.006Z,70.99
2023-04-21T10:47:38.077Z,70.57
2023-04-21T10:50:13.726Z,70.38
2023-04-21T10:52:44.898Z,69.66
2023-04-21T10:55:15.588Z,69.54
2023-04-21T10:57:45.435Z,70.66
2023-04-21T11:00:17.399Z,70.37
2023-04-21T11:02:45.346Z,69.13
2023-04-21T11:05:13.115Z,69.53
2023-04-21T11:07:41.952Z,69.52
2023-04-21T11:10:11.116Z,68.99
2023-04-21T11:12:40.406Z,68.10
2023-04-21T11:15:10.165Z,68.47
2023-04-21T11:17:39.593Z,67.69
2023-04-21T11:20:08.692Z,67.05
2023-04-21T11:22:37.739Z,68.32
2023-04-21T11:25:08.065Z,67.48
2023-04-21T11:27:35.522Z,68.54
2023-04-21T11:30:04.714Z,67.52
2023-04-21T11:32:32.210Z,67.68
2023-04-21T11:34:59.748Z,67.29
2023-04-21T11:37:28.019Z,66.55
2023-04-21T11:39:59.449Z,66.21
2023-04-21T11:42:28.697Z,66.50
2023-04-21T11:44:57.387Z,66.73
2023-04-21T11:47:26.120Z,67.16
2023-04-21T11:49:56.044Z,67.15
2023-04-21T11:52:25.292Z,67.96
2023-04-21T11:54:56.770Z,67.78
2023-04-21T11:57:25.290Z,67.33
2023-04-21T11:59:54.350Z,66.54
2023-04-21T12:02:24.359Z,65.93
2023-04-21T12:05:02.387Z,65.79
2023-04-21T12:07:31.080Z,66.35
2023-04-21T12:09:58.927Z,66.54
2023-04-21T12:12:26.685Z,66.61
2023-04-21T12:14:55.510Z,66.06
2023-04-21T12:17:23.083Z,65.37
2023-04-21T12:19:50.580Z,65.02
2023-04-21T12:22:19.197Z,67.21
2023-04-21T12:24:47.089Z,65.80
2023-04-21T12:27:14.784Z,66.44
2023-04-21T12:29:42.671Z,65.16
2023-04-21T12:32:11.556Z,63.62
2023-04-21T12:34:39.019Z,64.45
2023-04-21T12:37:06.724Z,63.74
2023-04-21T12:39:34.523Z,63.24
2023-04-21T12:42:02.622Z,63.78
2023-04-21T12:44:30.673Z,64.83
2023-04-21T12:46:58.796Z,64.18
2023-04-21T12:49:27.745Z,64.35
2023-04-21T12:51:55.308Z,64.02
2023-04-21T12:54:22.824Z,63.66
2023-04-21T12:56:50.292Z,65.16
2023-04-21T12:59:17.840Z,65.66
2023-04-21T13:01:45.328Z,63.85
2023-04-21T13:04:13.146Z,64.35
2023-04-21T13:06:42.208Z,64.91
2023-04-21T13:09:09.755Z,64.20
2023-04-21T13:12:06.896Z,63.96
2023-04-21T13:14:34.412Z,62.78
2023-04-21T13:17:02.063Z,63.43
2023-04-21T13:19:30.065Z,62.27
2023-04-21T13:21:59.284Z,63.07
2023-04-21T13:24:26.935Z,62.63
2023-04-21T13:26:54.601Z,62.44
2023-04-21T13:29:22.057Z,63.66
2023-04-21T13:31:49.561Z,63.12
2023-04-21T13:34:17.038Z,63.30
2023-04-21T13:36:44.491Z,62.07
2023-04-21T13:39:13.341Z,61.18
2023-04-21T13:41:40.787Z,61.87
2023-04-21T13:44:08.332Z,60.77
2023-04-21T13:46:36.206Z,61.11
2023-04-21T13:49:03.758Z,61.09
2023-04-21T13:51:32.148Z,61.29
2023-04-21T13:53:59.641Z,60.92
2023-04-21T13:56:28.511Z,60.52
2023-04-21T13:58:56.002Z,59.90
2023-04-21T14:01:23.520Z,58.71
2023-04-21T14:03:51.222Z,58.65
2023-04-21T14:06:18.908Z,58.50
2023-04-21T14:08:46.512Z,57.42
2023-04-21T14:11:13.993Z,59.07
2023-04-21T14:13:52.279Z,58.04
2023-04-21T14:16:27.295Z,57.63
2023-04-21T14:18:54.828Z,57.05
2023-04-21T14:21:22.423Z,56.48
2023-04-21T14:23:49.873Z,56.29
2023-04-21T14:26:17.390Z,55.92
2023-04-21T14:28:46.266Z,56.34
2023-04-21T14:31:13.799Z,55.86
2023-04-21T14:33:41.625Z,55.46
2023-04-21T14:36:10.338Z,55.80
2023-04-21T14:38:37.869Z,55.24
2023-04-21T14:41:05.751Z,54.89
2023-04-21T14:43:33.456Z,55.34
2023-04-21T14:46:02.339Z,55.76
2023-04-21T14:48:29.936Z,56.31
2023-04-21T14:50:57.935Z,55.76
2023-04-21T14:53:25.688Z,55.06
2023-04-21T14:55:54.713Z,55.31
2023-04-21T14:58:22.508Z,54.57
2023-04-21T15:00:50.084Z,54.56
2023-04-21T15:03:19.075Z,54.08
2023-04-21T15:05:46.612Z,53.78
2023-04-21T15:08:17.967Z,53.49
2023-04-21T15:10:45.592Z,53.60
2023-04-21T15:13:13.221Z,55.68
2023-04-21T15:15:40.952Z,55.00
2023-04-21T15:18:08.850Z,53.72
2023-04-21T15:20:44.293Z,54.13
2023-04-21T15:23:12.430Z,54.24
2023-04-21T15:25:40.196Z,54.53
2023-04-21T15:28:08.488Z,54.14
2023-04-21T15:30:36.283Z,55.39
2023-04-21T15:33:03.880Z,54.93
2023-04-21T15:35:31.360Z,54.38
2023-04-21T15:38:00.243Z,53.45
2023-04-21T15:40:27.778Z,55.02
2023-04-21T15:42:55.320Z,54.91
2023-04-21T15:45:22.848Z,54.59
2023-04-21T15:47:50.480Z,54.63
2023-04-21T15:50:18.094Z,54.60
2023-04-21T15:52:45.777Z,53.93
2023-04-21T15:55:15.234Z,55.26
2023-04-21T15:57:42.782Z,55.97
2023-04-21T16:00:11.242Z,53.88
2023-04-21T16:02:38.880Z,54.12
2023-04-21T16:05:07.796Z,54.54
2023-04-21T16:07:38.679Z,54.30
2023-04-21T16:10:07.289Z,54.10
2023-04-21T16:12:36.172Z,54.09
2023-04-21T16:15:20.242Z,55.54
2023-04-21T16:17:50.982Z,54.24
2023-04-21T16:20:18.616Z,54.07
2023-04-21T16:22:46.207Z,54.69
2023-04-21T16:25:14.283Z,54.00
2023-04-21T16:27:43.350Z,54.03
2023-04-21T16:30:11.459Z,54.17
2023-04-21T16:32:39.192Z,54.46
2023-04-21T16:35:08.607Z,54.10
2023-04-21T16:37:38.045Z,55.23
2023-04-21T16:40:07.390Z,56.05
2023-04-21T16:42:35.109Z,55.63
2023-04-21T16:45:04.547Z,55.63
2023-04-21T16:47:33.810Z,55.12
2023-04-21T16:50:01.395Z,56.26
2023-04-21T16:52:28.847Z,55.53
2023-04-21T16:54:56.358Z,55.78
2023-04-21T16:57:25.052Z,54.89
2023-04-21T16:59:52.805Z,54.76
2023-04-21T17:02:21.744Z,54.50
2023-04-21T17:04:49.246Z,55.11
2023-04-21T17:07:16.832Z,55.38
2023-04-21T17:09:44.342Z,54.92
2023-04-21T17:12:11.807Z,55.45
2023-04-21T17:14:39.450Z,55.61
2023-04-21T17:17:07.344Z,56.55
2023-04-21T17:19:36.482Z,56.88
2023-04-21T17:22:03.914Z,56.75
2023-04-21T17:24:44.781Z,56.96
2023-04-21T17:27:20.343Z,57.98
2023-04-21T17:29:47.875Z,57.54
2023-04-21T17:32:15.461Z,57.53
2023-04-21T17:34:44.435Z,56.87
2023-04-21T17:37:11.901Z,56.98
2023-04-21T17:39:39.524Z,58.25
2023-04-21T17:42:07.121Z,58.05
2023-04-21T17:44:34.997Z,58.45
2023-04-21T17:47:03.929Z,58.92
2023-04-21T17:49:31.469Z,58.70
2023-04-21T17:52:00.714Z,58.47
2023-04-21T17:54:37.341Z,58.99
2023-04-21T17:57:06.869Z,59.74
2023-04-21T17:59:35.307Z,61.88
2023-04-21T18:02:03.820Z,54.11
2023-04-21T18:04:34.221Z,54.50
2023-04-21T18:07:04.276Z,53.09
2023-04-21T18:09:33.168Z,54.50
2023-04-21T18:12:01.862Z,56.03
2023-04-21T18:14:31.285Z,55.59
2023-04-21T18:16:58.937Z,56.33
2023-04-21T18:19:26.424Z,57.39
2023-04-21T18:21:53.961Z,58.21
2023-04-21T18:24:22.844Z,59.00
2023-04-21T18:26:51.170Z,59.94
2023-04-21T18:29:19.440Z,60.74
2023-04-21T18:31:46.988Z,61.72
2023-04-21T18:34:15.098Z,61.34
2023-04-21T18:36:43.430Z,62.20
2023-04-21T18:39:11.441Z,63.07
2023-04-21T18:41:40.442Z,63.67
2023-04-21T18:44:07.969Z,64.72
2023-04-21T18:46:35.498Z,64.41
2023-04-21T18:49:02.993Z,64.21
2023-04-21T18:51:31.566Z,64.69
2023-04-21T18:53:59.068Z,64.98
2023-04-21T18:56:26.828Z,66.46
2023-04-21T18:58:55.733Z,66.59
2023-04-21T19:01:23.191Z,66.59
2023-04-21T19:03:50.979Z,67.45
2023-04-21T19:06:18.571Z,67.87
2023-04-21T19:08:46.001Z,66.28
2023-04-21T19:11:14.796Z,67.20
2023-04-21T19:13:42.244Z,67.92
2023-04-21T19:16:12.133Z,68.10
2023-04-21T19:18:39.911Z,68.25
2023-04-21T19:21:10.282Z,68.53
2023-04-21T19:23:37.727Z,69.09
2023-04-21T19:26:05.646Z,69.22
2023-04-21T19:28:33.190Z,69.57
2023-04-21T19:31:00.656Z,68.97
2023-04-21T19:33:29.593Z,69.72
2023-04-21T19:35:58.232Z,71.37
2023-04-21T19:38:25.784Z,71.34
2023-04-21T19:40:54.720Z,72.01
2023-04-21T19:43:23.999Z,72.10
2023-04-21T19:45:51.823Z,72.23
2023-04-21T19:48:19.350Z,72.08
2023-04-21T19:50:48.178Z,71.73
2023-04-21T19:53:15.620Z,72.44
2023-04-21T19:55:43.200Z,72.97
2023-04-21T19:58:10.775Z,73.98
2023-04-21T20:00:38.266Z,74.66
2023-04-21T20:03:07.552Z,73.55
2023-04-21T20:05:35.360Z,72.96
2023-04-21T20:08:04.258Z,73.22
2023-04-21T20:10:31.766Z,74.44
2023-04-21T20:12:59.209Z,74.32
2023-04-21T20:15:26.904Z,73.33
2023-04-21T20:17:54.518Z,74.52
2023-04-21T20:20:22.180Z,74.80
2023-04-21T20:22:49.630Z,75.28
2023-04-21T20:25:18.884Z,75.26
2023-04-21T20:27:46.583Z,76.88
2023-04-21T20:30:14.331Z,77.33
2023-04-21T20:32:41.848Z,78.33
2023-04-21T20:35:11.509Z,77.90
2023-04-21T20:37:38.958Z,77.31
2023-04-21T20:40:08.197Z,76.88
2023-04-21T20:42:37.179Z,76.44
2023-04-21T20:45:06.053Z,74.49
2023-04-21T20:47:33.738Z,73.43
2023-04-21T20:50:01.349Z,74.04
2023-04-21T20:52:28.946Z,75.41
2023-04-21T20:54:56.541Z,75.56
2023-04-21T20:57:26.669Z,76.53
2023-04-21T20:59:55.480Z,76.43
2023-04-21T21:02:23.086Z,76.28
2023-04-21T21:04:50.713Z,76.74
2023-04-21T21:07:18.228Z,76.72
2023-04-21T21:09:45.698Z,76.25
2023-04-21T21:12:13.185Z,76.99
2023-04-21T21:14:40.822Z,76.77
2023-04-21T21:17:09.859Z,77.15
2023-04-21T21:19:37.710Z,78.27
2023-04-21T21:22:05.365Z,79.11
2023-04-21T21:24:32.811Z,79.28
2023-04-21T21:27:01.400Z,78.55
2023-04-21T21:29:29.732Z,78.58
2023-04-21T21:31:57.209Z,78.63
2023-04-21T21:34:26.124Z,78.93
2023-04-21T21:36:53.590Z,78.72
2023-04-21T21:39:21.224Z,78.89
2023-04-21T21:41:48.677Z,78.86
2023-04-21T21:44:16.114Z,80.07
2023-04-21T21:46:44.127Z,80.79
2023-04-21T21:49:11.882Z,81.80
2023-04-21T21:51:40.732Z,82.35
2023-04-21T21:54:08.874Z,82.50
2023-04-21T21:56:36.628Z,81.63
2023-04-21T21:59:04.103Z,81.11
2023-04-21T22:01:31.635Z,81.49
2023-04-21T22:03:59.207Z,82.58
2023-04-21T22:06:28.809Z,81.58
2023-04-21T22:08:57.687Z,81.73
2023-04-21T22:11:25.315Z,82.00
2023-04-21T22:13:52.796Z,82.15
2023-04-21T22:16:20.411Z,82.63
2023-04-21T22:18:48.340Z,83.52
2023-04-21T22:21:15.991Z,83.94
2023-04-21T22:23:43.539Z,85.22
2023-04-21T22:26:12.474Z,85.82
2023-04-21T22:28:41.625Z,84.07
2023-04-21T22:31:10.247Z,83.72
2023-04-21T22:33:38.175Z,83.71
2023-04-21T22:36:08.559Z,83.67
2023-04-21T22:38:37.542Z,83.78
2023-04-21T22:41:05.248Z,84.33
2023-04-21T22:43:34.121Z,84.39
2023-04-21T22:46:02.198Z,84.00
2023-04-21T22:48:30.177Z,84.28
2023-04-21T22:50:58.846Z,85.21
2023-04-21T22:53:26.379Z,86.00
2023-04-21T22:55:53.994Z,85.46
2023-04-21T22:58:22.060Z,85.30
2023-04-21T23:00:51.122Z,86.32
2023-04-21T23:03:19.340Z,85.32
2023-04-21T23:05:46.918Z,85.37
2023-04-21T23:08:14.402Z,85.21
2023-04-21T23:10:41.926Z,85.95
2023-04-21T23:13:09.556Z,86.86
2023-04-21T23:15:37.090Z,87.18
2023-04-21T23:18:06.117Z,86.12
2023-04-21T23:20:33.766Z,86.75
2023-04-21T23:23:01.262Z,86.43
2023-04-21T23:25:28.715Z,87.40
2023-04-21T23:27:56.380Z,87.60
2023-04-21T23:30:23.819Z,89.00
2023-04-21T23:32:51.300Z,85.91
2023-04-21T23:35:20.147Z,88.20
2023-04-21T23:37:48.476Z,88.65
2023-04-21T23:40:16.007Z,88.47
2023-04-21T23:42:47.084Z,89.15
2023-04-21T23:45:15.194Z,89.15
2023-04-21T23:47:42.686Z,89.24
2023-04-21T23:50:11.283Z,88.03
2023-04-21T23:52:41.974Z,88.40
2023-04-21T23:55:11.739Z,87.99
2023-04-21T23:57:39.246Z,86.80
